Time;durP1;ratioP1;P1;durP2;ratioP2;P2;SDS_P1;SDS_P2;PMS_P1;PMS_P2;Temp;Humidity;BMP_temperature;BMP_pressure;BME280_temperature;BME280_humidity;BME280_pressure;Samples;Min_cycle;Max_cycle;Signal;HPM_P1;HPM_P2
2024/04/17 00:02:14;;;;;;;;;6.00;4.25;;;;;10.31;59.30;101295.50;5276859;26;44009;-72
2024/04/17 00:04:40;;;;;;;;;3.50;3.50;;;;;10.29;59.11;101299.34;5310014;26;68020;-74
2024/04/17 00:07:06;;;;;;;;;5.50;3.00;;;;;10.26;58.99;101297.03;5312873;26;45026;-72
2024/04/17 00:09:32;;;;;;;;;7.00;3.00;;;;;10.25;59.65;101303.31;5254641;26;43963;-72
2024/04/17 00:11:57;;;;;;;;;5.00;3.00;;;;;10.25;58.75;101298.84;5312585;26;44049;-74
2024/04/17 00:14:23;;;;;;;;;2.75;2.75;;;;;10.22;58.99;101304.47;5312993;26;44073;-72
2024/04/17 00:16:48;;;;;;;;;3.00;2.50;;;;;10.19;59.18;101291.56;5313439;26;44956;-72
2024/04/17 00:19:14;;;;;;;;;6.75;2.00;;;;;10.20;59.72;101295.88;5311792;26;63877;-72
2024/04/17 00:21:39;;;;;;;;;3.00;2.75;;;;;10.20;58.83;101295.88;5313188;26;44577;-73
2024/04/17 00:24:05;;;;;;;;;3.00;2.75;;;;;10.19;59.25;101295.03;5311227;26;64864;-73
2024/04/17 00:26:30;;;;;;;;;2.25;2.00;;;;;10.21;59.04;101300.16;5280708;26;44114;-74
2024/04/17 00:28:56;;;;;;;;;4.00;1.75;;;;;10.03;59.64;101272.06;5312562;26;43963;-72
2024/04/17 00:31:21;;;;;;;;;3.00;3.00;;;;;10.00;59.79;101275.03;5313076;26;43954;-73
2024/04/17 00:33:47;;;;;;;;;6.25;2.00;;;;;10.12;59.14;101294.03;5281508;26;55632;-71
2024/04/17 00:36:12;;;;;;;;;6.75;3.00;;;;;10.11;59.03;101292.38;5311135;26;65339;-71
2024/04/17 00:38:37;;;;;;;;;1.75;1.75;;;;;10.07;59.42;101289.25;5311477;26;61020;-72
2024/04/17 00:41:03;;;;;;;;;3.00;2.25;;;;;10.07;59.25;101291.06;5311763;26;61669;-72
2024/04/17 00:43:29;;;;;;;;;3.50;3.50;;;;;10.02;59.36;101285.44;5320945;26;44307;-75
2024/04/17 00:45:54;;;;;;;;;11.25;4.25;;;;;10.02;59.84;101290.75;5250013;26;44161;-72
2024/04/17 00:48:19;;;;;;;;;4.25;3.50;;;;;9.98;59.14;101284.13;5311536;26;66879;-73
2024/04/17 00:50:46;;;;;;;;;6.25;2.75;;;;;9.97;59.35;101287.78;5280912;26;59867;-75
2024/04/17 00:53:18;;;;;;;;;3.75;3.25;;;;;9.94;60.13;101281.00;5281636;26;44380;-72
2024/04/17 00:55:44;;;;;;;;;2.00;2.00;;;;;9.93;59.54;101282.00;5312537;26;48904;-72
2024/04/17 00:58:10;;;;;;;;;3.00;3.00;;;;;9.88;60.12;101274.53;5281041;26;44076;-74
2024/04/17 01:00:36;;;;;;;;;4.50;3.00;;;;;9.89;59.84;101280.69;5225764;26;44073;-72
2024/04/17 01:03:01;;;;;;;;;6.00;2.75;;;;;9.85;60.34;101274.06;5312006;26;44088;-71
2024/04/17 01:05:27;;;;;;;;;4.00;4.00;;;;;9.80;59.90;101263.97;5311370;26;44759;-72
2024/04/17 01:07:52;;;;;;;;;6.50;3.75;;;;;9.83;59.29;101270.72;5309723;26;43906;-77
2024/04/17 01:10:18;;;;;;;;;9.50;5.75;;;;;9.82;60.40;101272.56;5281869;26;44091;-73
2024/04/17 01:12:43;;;;;;;;;8.75;5.25;;;;;9.79;59.64;101270.25;5312170;26;44059;-75
2024/04/17 01:15:09;;;;;;;;;6.25;5.75;;;;;9.77;60.36;101270.41;5313258;26;55101;-71
2024/04/17 01:17:38;;;;;;;;;7.00;6.00;;;;;9.74;59.86;101268.09;5316708;26;43998;-72
2024/04/17 01:20:04;;;;;;;;;6.00;4.25;;;;;9.75;60.31;101268.94;5293027;26;43681;-72
2024/04/17 01:22:30;;;;;;;;;5.50;5.50;;;;;9.72;60.42;101266.59;5323308;26;43791;-73
2024/04/17 01:24:56;;;;;;;;;8.25;7.50;;;;;9.68;60.02;101260.00;5322478;26;49330;-72
2024/04/17 01:27:21;;;;;;;;;6.75;6.00;;;;;9.66;60.11;101265.44;5324561;26;44219;-74
2024/04/17 01:29:46;;;;;;;;;6.50;3.75;;;;;9.65;60.44;101265.63;5326005;26;43375;-72
2024/04/17 01:32:12;;;;;;;;;5.50;3.50;;;;;9.58;59.92;101255.69;5338245;26;64553;-75
2024/04/17 01:34:37;;;;;;;;;6.75;5.00;;;;;9.59;60.18;101264.44;5323739;26;70746;-72
2024/04/17 01:37:03;;;;;;;;;7.00;5.75;;;;;9.54;61.06;101259.66;5327377;26;56133;-76
2024/04/17 01:39:28;;;;;;;;;6.25;3.50;;;;;9.51;60.33;101254.69;5327777;26;44314;-76
2024/04/17 01:41:53;;;;;;;;;7.00;6.00;;;;;9.46;61.02;101259.63;5326403;26;63904;-77
2024/04/17 01:44:22;;;;;;;;;5.75;5.00;;;;;9.44;60.64;101253.66;5325108;26;70735;-75
2024/04/17 01:46:48;;;;;;;;;6.25;4.00;;;;;9.42;60.65;101259.16;5270322;26;44517;-77
2024/04/17 01:49:13;;;;;;;;;8.00;3.00;;;;;9.31;60.19;101240.94;5268953;26;43976;-75
2024/04/17 01:51:39;;;;;;;;;2.50;2.50;;;;;9.37;61.03;101261.47;5327147;26;43920;-72
2024/04/17 01:54:04;;;;;;;;;4.50;3.00;;;;;9.31;61.02;101251.53;5327615;26;44278;-75
2024/04/17 01:56:30;;;;;;;;;10.50;5.00;;;;;9.31;60.26;101249.69;5314512;26;67470;-78
2024/04/17 01:58:55;;;;;;;;;7.50;3.00;;;;;9.31;60.66;101255.00;5314624;26;53001;-75
2024/04/17 02:01:21;;;;;;;;;5.25;2.50;;;;;9.25;60.55;101245.06;5314243;26;44005;-74
2024/04/17 02:03:47;;;;;;;;;8.00;3.00;;;;;9.26;61.11;101246.72;5284472;26;44862;-78
2024/04/17 02:06:15;;;;;;;;;5.00;3.00;;;;;9.23;60.66;101252.34;5313794;26;44048;-74
2024/04/17 02:08:41;;;;;;;;;4.00;2.00;;;;;9.04;60.92;101227.84;5315637;26;44086;-78
2024/04/17 02:11:06;;;;;;;;;3.50;3.00;;;;;9.19;61.22;101258.94;5314320;26;44243;-77
2024/04/17 02:13:31;;;;;;;;;2.00;2.00;;;;;9.17;60.88;101258.28;5314726;26;44040;-76
2024/04/17 02:16:01;;;;;;;;;4.00;3.00;;;;;9.14;61.10;101261.25;5290787;26;58062;-77
2024/04/17 02:18:27;;;;;;;;;6.00;3.25;;;;;9.13;61.07;101265.72;5324975;26;43822;-78
2024/04/17 02:20:52;;;;;;;;;3.00;3.00;;;;;9.12;61.23;101268.50;5314250;26;43950;-78
2024/04/17 02:23:18;;;;;;;;;7.00;3.00;;;;;9.10;61.16;101270.50;5325617;26;65580;-75
2024/04/17 02:25:43;;;;;;;;;3.00;3.00;;;;;9.06;61.32;101269.97;5311627;26;66930;-75
2024/04/17 02:28:08;;;;;;;;;5.00;4.00;;;;;9.08;61.42;101286.50;5295211;26;56553;-79
2024/04/17 02:30:34;;;;;;;;;6.25;5.00;;;;;9.06;61.18;101280.56;5313190;26;70048;-75
2024/04/17 02:33:00;;;;;;;;;9.00;5.00;;;;;9.02;61.16;101276.56;5314402;26;49168;-78
2024/04/17 02:35:25;;;;;;;;;5.00;3.00;;;;;9.02;61.31;101282.72;5255819;26;44361;-79
2024/04/17 02:37:51;;;;;;;;;6.00;3.50;;;;;9.00;61.51;101279.41;5322419;26;43937;-79
2024/04/17 02:40:16;;;;;;;;;4.50;3.00;;;;;9.00;61.11;101282.03;5313434;26;66160;-77
2024/04/17 02:42:42;;;;;;;;;2.50;2.00;;;;;8.97;61.52;101281.53;5313533;26;44075;-75
2024/04/17 02:45:07;;;;;;;;;6.00;3.00;;;;;8.95;61.25;101280.84;5255038;26;44050;-79
2024/04/17 02:47:33;;;;;;;;;6.00;3.00;;;;;8.95;61.28;101279.06;5320140;26;43893;-74
2024/04/17 02:49:58;;;;;;;;;2.25;2.00;;;;;8.85;61.04;101268.59;5325638;26;63848;-76
2024/04/17 02:52:24;;;;;;;;;1.50;1.50;;;;;8.90;61.36;101278.72;5322461;26;44036;-78
2024/04/17 02:54:49;;;;;;;;;1.00;1.00;;;;;8.89;61.14;101280.50;5322374;26;65790;-77
2024/04/17 02:57:14;;;;;;;;;3.00;2.00;;;;;8.88;61.44;101278.03;5311147;26;61132;-77
2024/04/17 02:59:40;;;;;;;;;4.00;1.50;;;;;8.83;61.13;101272.41;5313115;26;48812;-79
2024/04/17 03:02:05;;;;;;;;;2.75;2.00;;;;;8.73;61.73;101262.78;5285989;26;44134;-82
2024/04/17 03:04:31;;;;;;;;;5.00;2.00;;;;;8.80;61.40;101278.00;5313228;26;53486;-84
2024/04/17 03:06:56;;;;;;;;;2.50;2.50;;;;;8.73;61.54;101270.72;5313840;26;44446;-81
2024/04/17 03:09:22;;;;;;;;;6.50;1.75;;;;;8.64;61.04;101263.72;5283265;26;43900;-75
2024/04/17 03:11:48;;;;;;;;;1.25;1.00;;;;;8.71;61.52;101275.34;5316051;26;45094;-73
2024/04/17 03:14:13;;;;;;;;;1.00;1.00;;;;;8.67;61.46;101278.44;5307754;26;43972;-75
2024/04/17 03:16:39;;;;;;;;;5.00;2.00;;;;;8.63;62.07;101277.09;5313344;26;56912;-74
2024/04/17 03:19:04;;;;;;;;;2.25;1.00;;;;;8.65;61.57;101278.59;5310442;26;44103;-71
2024/04/17 03:21:30;;;;;;;;;0.00;0.00;;;;;8.64;61.54;101281.41;5283436;26;44010;-72
2024/04/17 03:23:55;;;;;;;;;1.50;1.00;;;;;8.64;61.91;101284.03;5312306;26;66795;-72
2024/04/17 03:26:21;;;;;;;;;4.25;1.25;;;;;8.58;61.89;101285.50;5313777;26;43840;-76
2024/04/17 03:28:46;;;;;;;;;1.00;1.00;;;;;8.62;61.58;101296.59;5313235;26;44052;-73
2024/04/17 03:31:12;;;;;;;;;3.50;2.00;;;;;8.53;61.80;101274.56;5312362;26;68897;-73
2024/04/17 03:33:37;;;;;;;;;2.00;1.00;;;;;8.60;61.54;101288.81;5311427;26;44048;-72
2024/04/17 03:36:03;;;;;;;;;2.00;1.00;;;;;8.60;61.48;101286.16;5281613;26;60212;-74
2024/04/17 03:38:28;;;;;;;;;3.50;1.00;;;;;8.54;61.45;101284.16;5282690;26;47697;-72
2024/04/17 03:40:54;;;;;;;;;1.00;1.00;;;;;8.54;61.66;101290.28;5254684;26;45031;-73
2024/04/17 03:43:20;;;;;;;;;4.00;1.00;;;;;8.49;61.55;101281.13;5313111;26;44477;-72
2024/04/17 03:45:46;;;;;;;;;2.00;1.00;;;;;8.52;61.80;101294.91;5283606;26;44229;-75
2024/04/17 03:48:11;;;;;;;;;4.25;1.00;;;;;8.54;61.72;101300.00;5313627;26;44441;-74
2024/04/17 03:50:37;;;;;;;;;2.00;1.00;;;;;8.52;62.09;101294.06;5312776;26;44855;-73
2024/04/17 03:53:03;;;;;;;;;2.25;1.25;;;;;8.51;62.21;101295.88;5313055;26;44034;-73
2024/04/17 03:55:28;;;;;;;;;6.00;2.25;;;;;8.51;62.21;101301.16;5313559;26;43893;-72
2024/04/17 03:57:54;;;;;;;;;2.00;1.00;;;;;8.50;62.04;101302.16;5311810;26;58779;-72
2024/04/17 04:00:20;;;;;;;;;4.00;1.75;;;;;8.49;61.93;101302.25;5310949;26;44114;-74
2024/04/17 04:02:45;;;;;;;;;1.25;1.25;;;;;8.50;62.30;101312.72;5305942;26;44175;-72
2024/04/17 04:05:10;;;;;;;;;2.00;2.00;;;;;8.50;61.80;101307.44;5281123;26;63317;-73
2024/04/17 04:07:37;;;;;;;;;5.25;1.00;;;;;8.49;62.39;101310.19;5312148;26;66306;-75
2024/04/17 04:10:03;;;;;;;;;3.00;2.00;;;;;8.49;62.45;101310.19;5312540;26;44745;-73
2024/04/17 04:12:29;;;;;;;;;4.00;2.50;;;;;8.46;62.31;101306.88;5312964;26;43921;-72
2024/04/17 04:14:54;;;;;;;;;5.00;1.00;;;;;8.50;62.42;101310.09;5311789;26;60332;-75
2024/04/17 04:17:19;;;;;;;;;1.25;1.00;;;;;8.47;61.97;101313.00;5312868;26;66670;-73
2024/04/17 04:19:45;;;;;;;;;2.00;1.75;;;;;8.49;62.49;101310.19;5311326;26;63632;-73
2024/04/17 04:22:11;;;;;;;;;2.00;1.00;;;;;8.48;62.27;101313.81;5225753;26;44381;-78
2024/04/17 04:24:36;;;;;;;;;1.00;1.00;;;;;8.47;62.61;101323.56;5313613;26;44381;-73
2024/04/17 04:27:02;;;;;;;;;2.00;0.75;;;;;8.41;62.75;101303.06;5301683;26;66839;-75
2024/04/17 04:29:28;;;;;;;;;1.25;1.25;;;;;8.44;62.64;101314.13;5202833;26;45710;-72
2024/04/17 04:31:53;;;;;;;;;4.50;1.00;;;;;8.41;62.52;101313.63;5313187;26;44023;-72
2024/04/17 04:34:18;;;;;;;;;0.25;0.25;;;;;8.40;62.54;101311.97;5281635;26;52649;-73
2024/04/17 04:36:44;;;;;;;;;4.00;1.00;;;;;8.36;62.78;101306.16;5311623;26;66626;-72
2024/04/17 04:39:09;;;;;;;;;2.00;1.00;;;;;8.38;63.04;101309.47;5312555;26;66841;-73
2024/04/17 04:41:35;;;;;;;;;6.00;1.00;;;;;8.41;62.50;101317.09;5253491;26;44014;-74
2024/04/17 04:44:00;;;;;;;;;2.00;1.00;;;;;8.42;62.77;101316.09;5312441;26;63498;-73
2024/04/17 04:46:26;;;;;;;;;2.25;0.75;;;;;8.39;62.86;101310.31;5311575;26;66772;-76
2024/04/17 04:48:51;;;;;;;;;1.00;1.00;;;;;8.42;62.95;101320.56;5311876;26;69906;-75
2024/04/17 04:51:16;;;;;;;;;1.75;1.75;;;;;8.39;62.99;101320.88;5312881;26;67955;-74
2024/04/17 04:53:42;;;;;;;;;1.50;1.00;;;;;8.37;63.07;101313.09;5319224;26;63527;-74
2024/04/17 04:56:08;;;;;;;;;2.50;1.00;;;;;8.41;62.87;101321.56;5311743;26;43834;-75
2024/04/17 04:58:33;;;;;;;;;2.00;1.25;;;;;8.46;62.85;101327.22;5253373;26;45486;-72
2024/04/17 05:00:59;;;;;;;;;5.75;1.25;;;;;8.48;63.31;101325.25;5311834;26;44019;-73
2024/04/17 05:03:24;;;;;;;;;2.25;1.50;;;;;8.49;63.12;101319.00;5312168;26;44001;-73
2024/04/17 05:05:50;;;;;;;;;1.00;1.00;;;;;8.46;63.38;101320.09;5311392;26;43908;-72
2024/04/17 05:08:16;;;;;;;;;1.00;1.00;;;;;8.53;63.15;101332.72;5281883;26;44270;-73
2024/04/17 05:10:41;;;;;;;;;2.00;1.00;;;;;8.53;63.55;101327.44;5313972;26;44490;-73
2024/04/17 05:13:07;;;;;;;;;2.00;1.00;;;;;8.52;63.50;101326.63;5313746;26;62145;-73
2024/04/17 05:15:32;;;;;;;;;1.75;0.75;;;;;8.40;63.25;101314.63;5287491;26;43576;-74
2024/04/17 05:17:57;;;;;;;;;2.00;2.00;;;;;8.58;63.42;101338.34;5297452;26;52130;-72
2024/04/17 05:20:23;;;;;;;;;2.00;2.00;;;;;8.53;63.17;101324.78;5297809;26;61624;-78
2024/04/17 05:22:49;;;;;;;;;3.00;2.25;;;;;8.48;63.33;101319.09;5298462;26;43730;-73
2024/04/17 05:25:16;;;;;;;;;3.00;1.75;;;;;8.51;63.33;101321.47;5328548;26;49171;-73
2024/04/17 05:27:41;;;;;;;;;1.50;1.50;;;;;8.52;63.43;101321.31;5329475;26;44506;-73
2024/04/17 05:30:10;;;;;;;;;4.50;2.00;;;;;8.66;63.17;101340.22;5319105;26;43644;-73
2024/04/17 05:32:36;;;;;;;;;1.25;1.25;;;;;8.67;63.46;101334.78;5330842;26;43557;-74
2024/04/17 05:35:01;;;;;;;;;4.50;2.00;;;;;8.71;63.25;101335.31;5344738;26;43705;-76
2024/04/17 05:37:27;;;;;;;;;2.00;1.25;;;;;8.67;63.65;101328.66;5340459;26;65918;-76
2024/04/17 05:39:52;;;;;;;;;6.00;3.00;;;;;8.65;63.07;101322.72;5270076;26;45352;-72
2024/04/17 05:42:17;;;;;;;;;5.75;3.00;;;;;8.70;62.94;101331.00;5330125;26;49954;-72
2024/04/17 05:44:43;;;;;;;;;7.00;2.00;;;;;8.74;63.33;101341.13;5307793;26;43631;-73
2024/04/17 05:47:08;;;;;;;;;3.00;3.00;;;;;8.77;63.41;101339.97;5327771;26;44157;-73
2024/04/17 05:49:33;;;;;;;;;5.00;2.00;;;;;8.71;63.28;101330.84;5328897;26;43685;-74
2024/04/17 05:51:59;;;;;;;;;3.00;2.25;;;;;8.77;63.38;101331.22;5340653;26;49979;-74
2024/04/17 05:54:24;;;;;;;;;2.00;2.00;;;;;8.77;63.56;101329.38;5347569;26;64138;-73
2024/04/17 05:56:50;;;;;;;;;2.00;2.00;;;;;8.66;63.34;101319.09;5255040;26;45787;-75
2024/04/17 05:59:18;;;;;;;;;3.50;2.25;;;;;8.80;63.06;101342.28;5327872;26;44246;-74
2024/04/17 06:01:44;;;;;;;;;2.00;2.00;;;;;8.69;63.21;101334.63;5303677;26;43447;-77
2024/04/17 06:04:10;;;;;;;;;3.00;3.00;;;;;8.67;63.22;101326.84;5334783;26;58463;-73
2024/04/17 06:06:35;;;;;;;;;3.00;2.00;;;;;8.68;63.21;101327.69;5355665;26;44790;-72
2024/04/17 06:09:01;;;;;;;;;2.00;2.00;;;;;8.83;63.05;101349.91;5330542;26;43548;-73
2024/04/17 06:11:26;;;;;;;;;3.00;2.00;;;;;8.83;63.04;101355.19;5348387;26;57734;-72
2024/04/17 06:13:52;;;;;;;;;7.75;3.00;;;;;8.83;63.00;101347.25;5346451;26;43686;-72
2024/04/17 06:16:17;;;;;;;;;3.50;1.00;;;;;8.80;63.19;101354.69;5341148;26;69276;-73
2024/04/17 06:18:43;;;;;;;;;3.00;1.25;;;;;8.80;62.67;101344.13;5349348;26;44123;-75
2024/04/17 06:21:09;;;;;;;;;2.00;2.00;;;;;8.83;62.85;101349.91;5269532;26;43670;-72
2024/04/17 06:23:34;;;;;;;;;2.75;2.00;;;;;8.83;62.85;101347.25;5311373;26;61258;-73
2024/04/17 06:26:00;;;;;;;;;2.00;2.00;;;;;8.86;62.53;101346.13;5319527;26;70176;-74
2024/04/17 06:28:26;;;;;;;;;2.25;1.25;;;;;8.84;62.46;101342.81;5287181;26;43970;-73
2024/04/17 06:30:51;;;;;;;;;2.00;2.00;;;;;8.68;62.83;101322.41;5326608;26;43931;-73
2024/04/17 06:33:16;;;;;;;;;2.25;2.00;;;;;8.74;62.49;101329.69;5331046;26;52208;-73
2024/04/17 06:35:42;;;;;;;;;4.50;1.50;;;;;8.93;62.33;101354.22;5321121;26;56780;-73
2024/04/17 06:38:08;;;;;;;;;4.75;2.00;;;;;8.92;62.07;101349.94;5324649;26;44037;-75
2024/04/17 06:40:33;;;;;;;;;1.25;1.25;;;;;8.96;62.06;101357.41;5314663;26;44286;-72
2024/04/17 06:42:59;;;;;;;;;1.25;1.25;;;;;9.04;61.93;101356.59;5324759;26;52451;-75
2024/04/17 06:45:24;;;;;;;;;16.50;16.25;;;;;9.10;61.88;101363.06;5323862;26;45017;-73
2024/04/17 06:47:49;;;;;;;;;1.00;1.00;;;;;9.12;62.06;101353.16;5322651;26;47659;-76
2024/04/17 06:50:15;;;;;;;;;6.50;2.00;;;;;9.20;61.42;101358.47;5299208;26;49407;-72
2024/04/17 06:52:40;;;;;;;;;5.75;1.00;;;;;9.24;61.09;101359.81;5320329;26;44028;-73
2024/04/17 06:55:06;;;;;;;;;1.00;1.00;;;;;9.29;60.96;101364.66;5317099;26;68837;-73
2024/04/17 06:57:31;;;;;;;;;2.50;1.00;;;;;9.33;61.08;101358.03;5280186;26;53465;-69
2024/04/17 06:59:56;;;;;;;;;2.00;2.00;;;;;9.37;60.58;101355.88;5318182;26;63847;-70
2024/04/17 07:02:22;;;;;;;;;5.00;1.25;;;;;9.42;60.90;101365.00;5315916;26;53194;-71
2024/04/17 07:04:48;;;;;;;;;1.50;1.00;;;;;9.48;60.47;101363.53;5286466;26;44328;-70
2024/04/17 07:07:13;;;;;;;;;1.75;1.00;;;;;9.57;60.76;101367.03;5279992;26;44088;-70
2024/04/17 07:09:39;;;;;;;;;1.00;1.00;;;;;9.59;60.45;101357.09;5259104;26;43926;-70
2024/04/17 07:12:05;;;;;;;;;1.00;1.00;;;;;9.72;59.99;101360.09;5251461;27;44114;-70
2024/04/17 07:14:31;;;;;;;;;2.75;1.00;;;;;9.80;59.48;101361.09;5292961;26;45618;-71
2024/04/17 07:16:56;;;;;;;;;1.00;1.00;;;;;9.87;59.92;101365.59;5285825;26;44124;-74
2024/04/17 07:19:24;;;;;;;;;0.00;0.00;;;;;9.95;59.68;101361.28;5315927;26;44577;-68
2024/04/17 07:21:50;;;;;;;;;2.00;1.00;;;;;9.97;59.35;101364.59;5282859;26;44027;-71
2024/04/17 07:24:15;;;;;;;;;1.00;1.00;;;;;10.05;59.13;101364.59;5313412;26;46008;-70
2024/04/17 07:26:41;;;;;;;;;0.00;0.00;;;;;10.13;58.51;101351.34;5281657;26;63909;-69
2024/04/17 07:29:06;;;;;;;;;1.25;1.25;;;;;10.20;58.61;101356.81;5312515;26;53260;-70
2024/04/17 07:31:32;;;;;;;;;0.75;0.75;;;;;10.26;57.88;101361.44;5280668;26;63276;-70
2024/04/17 07:33:58;;;;;;;;;1.75;1.00;;;;;10.36;58.32;101351.50;5312476;26;44307;-70
2024/04/17 07:36:23;;;;;;;;;0.75;0.75;;;;;10.42;58.20;101350.03;5312774;26;44016;-70
2024/04/17 07:38:48;;;;;;;;;0.50;0.50;;;;;10.52;58.03;101362.28;5314309;26;44032;-70
2024/04/17 07:41:14;;;;;;;;;1.00;1.00;;;;;10.60;57.00;101357.81;5311554;26;63292;-70
2024/04/17 07:43:39;;;;;;;;;1.00;0.00;;;;;10.68;57.75;101356.94;5311855;26;69406;-71
2024/04/17 07:46:05;;;;;;;;;0.50;0.00;;;;;10.75;56.55;101354.44;5312217;26;57611;-72
2024/04/17 07:48:30;;;;;;;;;1.25;1.00;;;;;10.76;55.66;101356.09;5312505;26;60798;-75
2024/04/17 07:50:55;;;;;;;;;1.00;1.00;;;;;10.76;56.63;101345.50;5311731;26;44352;-70
2024/04/17 07:53:21;;;;;;;;;1.25;0.50;;;;;10.83;55.66;101342.97;5310292;26;44118;-70
2024/04/17 07:55:47;;;;;;;;;0.00;0.00;;;;;10.89;55.75;101345.78;5278086;26;68125;-69
2024/04/17 07:58:21;;;;;;;;;0.00;0.00;;;;;10.94;55.25;101348.72;5282311;26;44067;-69
2024/04/17 08:00:47;;;;;;;;;1.00;1.00;;;;;10.98;55.78;101359.81;5312896;26;43864;-71
2024/04/17 08:03:12;;;;;;;;;0.00;0.00;;;;;11.03;56.07;101344.22;5312105;26;44728;-74
2024/04/17 08:05:38;;;;;;;;;1.00;1.00;;;;;11.12;55.76;101349.50;5281994;26;44061;-75
2024/04/17 08:08:04;;;;;;;;;2.00;0.25;;;;;11.20;55.88;101341.50;5281502;26;44063;-71
2024/04/17 08:10:30;;;;;;;;;1.00;1.00;;;;;11.32;54.55;101347.22;5280978;26;44065;-69
2024/04/17 08:13:07;;;;;;;;;5.00;0.00;;;;;11.43;54.47;101346.84;5280656;26;70468;-75
2024/04/17 08:15:33;;;;;;;;;0.25;0.00;;;;;11.54;53.34;101344.78;5310631;26;44314;-70
2024/04/17 08:17:58;;;;;;;;;0.75;0.50;;;;;11.56;53.90;101337.47;5312256;26;46351;-71
2024/04/17 08:20:24;;;;;;;;;3.50;1.00;;;;;11.68;54.50;101330.75;5311268;26;64124;-74
2024/04/17 08:22:49;;;;;;;;;2.00;0.00;;;;;11.75;53.60;101341.50;5311840;26;62790;-77
2024/04/17 08:25:14;;;;;;;;;4.00;1.00;;;;;11.72;53.33;101333.84;5252915;26;58662;-74
2024/04/17 08:27:40;;;;;;;;;0.75;0.75;;;;;11.76;53.92;101333.34;5287701;26;45947;-78
2024/04/17 08:30:06;;;;;;;;;1.00;1.00;;;;;11.85;53.03;101339.44;5311235;26;63405;-77
2024/04/17 08:32:34;;;;;;;;;2.25;0.00;;;;;11.89;51.83;101334.56;5282153;26;45658;-77
2024/04/17 08:35:00;;;;;;;;;0.75;0.75;;;;;11.94;52.70;101335.69;5280916;26;44478;-77
2024/04/17 08:37:25;;;;;;;;;3.25;1.00;;;;;12.04;52.22;101335.47;5311333;26;66693;-71
2024/04/17 08:39:51;;;;;;;;;1.25;1.00;;;;;12.18;52.34;101330.38;5311812;26;58477;-76
2024/04/17 08:42:21;;;;;;;;;1.00;1.00;;;;;12.33;52.23;101325.06;5272434;27;45853;-71
2024/04/17 08:44:46;;;;;;;;;1.75;1.00;;;;;12.46;51.84;101327.91;5304143;26;44042;-72
2024/04/17 08:47:15;;;;;;;;;5.00;1.00;;;;;12.65;51.73;101325.75;5281433;26;64074;-72
2024/04/17 08:49:40;;;;;;;;;1.25;1.00;;;;;12.85;51.06;101323.31;5311423;26;44330;-71
2024/04/17 08:52:06;;;;;;;;;0.50;0.50;;;;;13.05;51.52;101325.44;5281658;26;68794;-71
2024/04/17 08:54:31;;;;;;;;;1.00;1.00;;;;;13.17;49.93;101317.78;5251708;26;43860;-73
2024/04/17 08:56:56;;;;;;;;;1.00;1.00;;;;;13.36;50.01;101321.69;5252831;26;58014;-72
2024/04/17 08:59:22;;;;;;;;;1.00;1.00;;;;;13.51;49.66;101330.47;5252106;26;69197;-70
2024/04/17 09:01:47;;;;;;;;;1.50;1.00;;;;;13.67;49.21;101325.94;5310992;26;67319;-71
2024/04/17 09:04:13;;;;;;;;;2.00;1.00;;;;;13.68;49.18;101315.06;5311062;26;44148;-71
2024/04/17 09:06:39;;;;;;;;;1.00;1.00;;;;;13.72;49.02;101318.19;5280444;26;62189;-71
2024/04/17 09:09:04;;;;;;;;;1.00;1.00;;;;;13.85;48.59;101317.47;5311757;26;44056;-73
2024/04/17 09:11:30;;;;;;;;;0.00;0.00;;;;;14.02;48.37;101319.88;5224173;26;44890;-71
2024/04/17 09:13:55;;;;;;;;;2.25;1.00;;;;;14.15;48.46;101306.63;5280419;26;65144;-70
2024/04/17 09:16:20;;;;;;;;;2.00;2.00;;;;;14.29;48.59;101311.03;5311011;26;60716;-73
2024/04/17 09:18:48;;;;;;;;;2.25;1.00;;;;;14.46;47.35;101310.72;5321114;26;57445;-71
2024/04/17 09:21:13;;;;;;;;;1.50;1.25;;;;;14.60;47.94;101313.47;5252114;26;45982;-71
2024/04/17 09:23:39;;;;;;;;;1.75;1.75;;;;;14.67;46.80;101312.50;5256826;26;66368;-71
2024/04/17 09:26:31;;;;;;;;;2.00;1.25;;;;;14.77;46.72;101308.66;5243341;26;44034;-73
2024/04/17 09:28:56;;;;;;;;;1.75;1.75;;;;;14.66;46.40;101315.34;5305362;26;67909;-71
2024/04/17 09:31:22;;;;;;;;;1.00;1.00;;;;;14.48;45.93;101313.22;5311616;26;44788;-70
2024/04/17 09:33:47;;;;;;;;;1.00;1.00;;;;;14.42;46.38;101312.97;5311590;26;44402;-73
2024/04/17 09:36:13;;;;;;;;;1.00;1.00;;;;;14.47;46.34;101312.38;5310690;26;44147;-71
2024/04/17 09:38:39;;;;;;;;;2.25;1.00;;;;;14.35;45.71;101297.94;5280769;26;44111;-71
2024/04/17 09:41:04;;;;;;;;;3.50;2.00;;;;;14.35;45.59;101298.75;5310093;26;45086;-71
2024/04/17 09:43:30;;;;;;;;;2.50;1.25;;;;;14.44;45.39;101296.75;5256187;26;68946;-73
2024/04/17 09:45:55;;;;;;;;;1.75;1.00;;;;;14.57;45.03;101301.34;5272919;26;66024;-74
2024/04/17 09:48:20;;;;;;;;;1.67;1.67;;;;;14.69;44.26;101297.09;5310716;26;62686;-72
2024/04/17 09:50:46;;;;;;;;;1.25;1.25;;;;;14.80;44.21;101289.56;5278976;26;64488;-73
2024/04/17 09:53:11;;;;;;;;;1.00;0.75;;;;;14.95;44.57;101298.25;5279248;26;65975;-72
2024/04/17 09:55:36;;;;;;;;;1.00;1.00;;;;;15.08;44.03;101288.63;5254161;26;61548;-72
2024/04/17 09:58:02;;;;;;;;;3.25;2.00;;;;;15.15;42.24;101284.16;5254026;26;68477;-72
2024/04/17 10:00:27;;;;;;;;;1.50;1.50;;;;;15.09;42.05;101269.75;5282698;26;68947;-71
2024/04/17 10:02:53;;;;;;;;;1.50;1.00;;;;;15.13;43.08;101280.84;5254052;26;44441;-72
2024/04/17 10:05:19;;;;;;;;;2.25;1.50;;;;;15.18;41.86;101280.25;5305677;26;44129;-71
2024/04/17 10:07:44;;;;;;;;;3.00;1.75;;;;;15.16;42.15;101281.28;5292008;26;64253;-72
2024/04/17 10:10:12;;;;;;;;;2.50;2.25;;;;;15.19;42.07;101274.72;5283333;26;69420;-73
2024/04/17 10:12:37;;;;;;;;;1.00;1.00;;;;;15.22;42.45;101273.47;5250103;26;44171;-71
2024/04/17 10:15:03;;;;;;;;;2.00;1.50;;;;;15.16;41.79;101265.25;5281035;26;64515;-71
2024/04/17 10:17:28;;;;;;;;;2.00;1.00;;;;;15.14;42.24;101261.97;5313000;26;44207;-71
2024/04/17 10:19:54;;;;;;;;;1.00;1.00;;;;;15.18;41.83;101254.38;5282959;26;60697;-71
2024/04/17 10:22:20;;;;;;;;;0.50;0.50;;;;;15.19;41.72;101249.84;5313656;26;43967;-71
2024/04/17 10:24:45;;;;;;;;;0.50;0.50;;;;;15.25;41.86;101257.88;5249413;26;44016;-71
2024/04/17 10:27:15;;;;;;;;;2.00;2.00;;;;;15.20;39.70;101249.66;5313641;26;43989;-72
2024/04/17 10:29:41;;;;;;;;;1.50;1.00;;;;;15.12;40.24;101253.34;5309718;26;44417;-71
2024/04/17 10:32:11;;;;;;;;;1.50;0.50;;;;;15.07;40.27;101236.25;5313756;26;44419;-72
2024/04/17 10:34:47;;;;;;;;;1.50;0.00;;;;;15.14;40.67;101232.59;5250496;26;43884;-72
2024/04/17 10:37:14;;;;;;;;;0.00;0.00;;;;;15.28;39.56;101229.94;5303175;26;44191;-72
2024/04/17 10:39:40;;;;;;;;;1.25;1.00;;;;;15.49;40.56;101234.28;5302672;26;45826;-71
2024/04/17 10:42:06;;;;;;;;;1.00;1.00;;;;;15.58;40.14;101230.38;5313359;26;44459;-72
2024/04/17 10:44:36;;;;;;;;;0.25;0.25;;;;;15.59;38.25;101232.00;5263155;27;43923;-71
2024/04/17 10:47:01;;;;;;;;;0.75;0.50;;;;;15.50;39.25;101233.25;5276711;26;44993;-71
2024/04/17 10:49:27;;;;;;;;;0.75;0.75;;;;;15.36;39.51;101231.59;5313345;26;43999;-71
2024/04/17 10:51:53;;;;;;;;;1.50;1.50;;;;;15.19;40.37;101231.16;5312843;26;60711;-71
2024/04/17 10:54:19;;;;;;;;;1.50;0.75;;;;;15.02;40.56;101231.53;5283722;26;44043;-72
2024/04/17 10:56:44;;;;;;;;;1.00;1.00;;;;;14.92;40.95;101233.78;5313641;26;44107;-72
2024/04/17 10:59:10;;;;;;;;;0.75;0.75;;;;;14.81;40.07;101245.84;5316306;26;69091;-71
2024/04/17 11:01:37;;;;;;;;;1.50;1.00;;;;;14.60;39.64;101238.75;5312657;26;50415;-72
2024/04/17 11:04:03;;;;;;;;;0.75;0.75;;;;;14.46;40.28;101256.56;5310416;26;44004;-72
2024/04/17 11:06:28;;;;;;;;;0.00;0.00;;;;;14.25;40.50;101244.94;5311520;26;44160;-72
2024/04/17 11:08:54;;;;;;;;;0.25;0.25;;;;;14.10;40.84;101243.22;5310460;26;45012;-73
2024/04/17 11:11:20;;;;;;;;;2.00;1.00;;;;;14.05;41.35;101247.50;5274930;26;66615;-71
2024/04/17 11:13:46;;;;;;;;;2.00;0.00;;;;;13.96;42.62;101241.47;5312147;26;44087;-72
2024/04/17 11:16:12;;;;;;;;;1.00;0.50;;;;;13.88;42.78;101252.28;5313670;26;44002;-72
2024/04/17 11:18:38;;;;;;;;;0.00;0.00;;;;;13.80;43.11;101240.78;5313162;26;44847;-71
2024/04/17 11:21:03;;;;;;;;;2.00;1.00;;;;;13.80;43.74;101242.59;5281165;26;44437;-72
2024/04/17 11:23:43;;;;;;;;;1.75;1.75;;;;;13.82;43.90;101238.72;5313520;26;43945;-71